Time;durP1;ratioP1;P1;durP2;ratioP2;P2;SDS_P1;SDS_P2;PMS_P1;PMS_P2;Temp;Humidity;BMP_temperature;BMP_pressure;BME280_temperature;BME280_humidity;BME280_pressure;Samples;Min_cycle;Max_cycle;Signal;HPM_P1;HPM_P2
2021/09/13 00:00:00;;;;;;;8.93;6.40;;;;;;;;;;4975005;28;20035;-57
2021/09/13 00:02:28;;;;;;;8.17;6.23;;;;;;;;;;4982036;28;20019;-58
2021/09/13 00:04:57;;;;;;;8.55;5.75;;;;;;;;;;4955611;28;20324;-56
2021/09/13 00:07:23;;;;;;;7.97;6.22;;;;;;;;;;4970655;28;20035;-56
2021/09/13 00:09:51;;;;;;;10.18;6.35;;;;;;;;;;4955714;28;20030;-57
2021/09/13 00:12:16;;;;;;;10.38;6.32;;;;;;;;;;4955685;28;20089;-58
2021/09/13 00:14:45;;;;;;;9.27;6.18;;;;;;;;;;4970048;28;20636;-57
2021/09/13 00:17:10;;;;;;;7.75;6.18;;;;;;;;;;4955451;28;20022;-56
2021/09/13 00:19:39;;;;;;;6.78;6.00;;;;;;;;;;4970393;28;20027;-54
2021/09/13 00:22:13;;;;;;;7.72;6.22;;;;;;;;;;4955521;28;20471;-53
2021/09/13 00:24:42;;;;;;;8.07;6.40;;;;;;;;;;4954008;28;20079;-53
2021/09/13 00:27:07;;;;;;;8.02;5.88;;;;;;;;;;4955298;28;20509;-51
2021/09/13 00:29:32;;;;;;;7.85;6.60;;;;;;;;;;4971837;28;20027;-51
2021/09/13 00:31:57;;;;;;;8.77;6.40;;;;;;;;;;4974552;28;20022;-51
2021/09/13 00:34:26;;;;;;;8.57;5.90;;;;;;;;;;4974339;28;20474;-51
2021/09/13 00:36:51;;;;;;;9.35;6.38;;;;;;;;;;4974705;28;20258;-52
2021/09/13 00:39:16;;;;;;;6.50;5.75;;;;;;;;;;4989617;28;20019;-52
2021/09/13 00:41:41;;;;;;;7.15;5.63;;;;;;;;;;4989689;28;20054;-52
2021/09/13 00:44:16;;;;;;;8.70;5.65;;;;;;;;;;4988699;28;20019;-51
2021/09/13 00:46:47;;;;;;;8.20;6.18;;;;;;;;;;4974457;28;20102;-55
2021/09/13 00:49:18;;;;;;;8.73;5.70;;;;;;;;;;4974202;28;20026;-54
2021/09/13 00:51:44;;;;;;;6.95;5.47;;;;;;;;;;4974821;28;20098;-52
2021/09/13 00:54:15;;;;;;;7.43;5.95;;;;;;;;;;4974081;28;20513;-55
2021/09/13 00:56:49;;;;;;;7.10;5.70;;;;;;;;;;4971077;28;20062;-54
2021/09/13 00:59:21;;;;;;;6.40;5.63;;;;;;;;;;4954040;28;20553;-55
2021/09/13 01:01:55;;;;;;;10.32;5.68;;;;;;;;;;4976075;28;20567;-53
2021/09/13 01:04:20;;;;;;;8.23;6.28;;;;;;;;;;4959961;28;20034;-55
2021/09/13 01:06:52;;;;;;;6.85;5.82;;;;;;;;;;4955339;28;20382;-54
2021/09/13 01:09:17;;;;;;;7.50;5.93;;;;;;;;;;4954714;28;20377;-55
2021/09/13 01:11:45;;;;;;;6.80;5.68;;;;;;;;;;4969436;28;20107;-56
2021/09/13 01:14:18;;;;;;;7.47;6.43;;;;;;;;;;4954820;28;20078;-53
2021/09/13 01:16:52;;;;;;;7.65;5.57;;;;;;;;;;4954847;28;20015;-55
2021/09/13 01:19:25;;;;;;;8.13;5.55;;;;;;;;;;5013584;22;20084;-56
2021/09/13 01:21:51;;;;;;;7.15;5.93;;;;;;;;;;4970670;28;20023;-53
2021/09/13 01:24:23;;;;;;;7.38;6.35;;;;;;;;;;4963333;28;20452;-54
2021/09/13 01:26:51;;;;;;;8.27;5.93;;;;;;;;;;4956085;28;20055;-52
2021/09/13 01:29:19;;;;;;;9.80;6.43;;;;;;;;;;4955117;28;20027;-50
2021/09/13 01:31:47;;;;;;;7.32;6.10;;;;;;;;;;4954990;28;20031;-53
2021/09/13 01:34:14;;;;;;;9.45;6.47;;;;;;;;;;4955129;28;20051;-51
2021/09/13 01:36:39;;;;;;;8.80;5.88;;;;;;;;;;4965510;28;20035;-55
2021/09/13 01:39:26;;;;;;;7.88;5.97;;;;;;;;;;4953790;28;20514;-57
2021/09/13 01:41:52;;;;;;;7.63;6.18;;;;;;;;;;4964147;28;20113;-57
2021/09/13 01:44:23;;;;;;;9.63;7.00;;;;;;;;;;4974336;28;20174;-57
2021/09/13 01:46:51;;;;;;;10.75;7.13;;;;;;;;;;4974258;28;20548;-57
2021/09/13 01:49:26;;;;;;;8.40;6.47;;;;;;;;;;4989007;28;20023;-56
2021/09/13 01:51:51;;;;;;;8.55;6.55;;;;;;;;;;4973908;28;20030;-57
2021/09/13 01:54:20;;;;;;;8.60;6.15;;;;;;;;;;4973450;28;20478;-56
2021/09/13 01:56:45;;;;;;;8.55;7.05;;;;;;;;;;4988930;28;20018;-56
2021/09/13 01:59:10;;;;;;;10.63;6.80;;;;;;;;;;4988824;28;20026;-57
2021/09/13 02:01:35;;;;;;;11.13;7.10;;;;;;;;;;4973526;28;20759;-55
2021/09/13 02:04:03;;;;;;;10.13;6.97;;;;;;;;;;4988808;28;20294;-57
2021/09/13 02:06:31;;;;;;;8.55;7.18;;;;;;;;;;4974029;28;20273;-58
2021/09/13 02:08:57;;;;;;;9.27;6.75;;;;;;;;;;4972417;28;20029;-57
2021/09/13 02:11:25;;;;;;;8.90;7.20;;;;;;;;;;4973795;28;20397;-56
2021/09/13 02:13:50;;;;;;;8.48;6.75;;;;;;;;;;4973737;28;20023;-57
2021/09/13 02:16:15;;;;;;;8.50;6.97;;;;;;;;;;4973724;28;20026;-57
2021/09/13 02:18:52;;;;;;;11.80;7.53;;;;;;;;;;4973362;28;20294;-55
2021/09/13 02:21:18;;;;;;;8.35;6.88;;;;;;;;;;4972443;28;20677;-58
2021/09/13 02:23:43;;;;;;;7.55;6.35;;;;;;;;;;4973615;28;20026;-58
2021/09/13 02:26:08;;;;;;;7.55;6.32;;;;;;;;;;4973664;28;20027;-57
2021/09/13 02:28:40;;;;;;;8.52;7.00;;;;;;;;;;4956203;28;20390;-54
2021/09/13 02:31:05;;;;;;;8.32;6.70;;;;;;;;;;4953123;29;20105;-54
2021/09/13 02:33:40;;;;;;;8.30;6.93;;;;;;;;;;4953074;28;20131;-52
2021/09/13 02:36:05;;;;;;;7.55;6.72;;;;;;;;;;4952948;28;20085;-54
2021/09/13 02:38:33;;;;;;;9.37;6.80;;;;;;;;;;4954184;28;20494;-53
2021/09/13 02:40:59;;;;;;;10.77;7.22;;;;;;;;;;4952947;28;20266;-54
2021/09/13 02:43:24;;;;;;;7.65;6.50;;;;;;;;;;4952971;28;20031;-58
2021/09/13 02:45:50;;;;;;;8.80;7.03;;;;;;;;;;4954229;28;20070;-57
2021/09/13 02:48:15;;;;;;;8.10;6.53;;;;;;;;;;4954104;28;20024;-57
2021/09/13 02:50:40;;;;;;;10.17;6.80;;;;;;;;;;4952777;28;20762;-58
2021/09/13 02:53:26;;;;;;;9.60;6.30;;;;;;;;;;4959956;28;20802;-57
2021/09/13 02:55:51;;;;;;;8.48;6.20;;;;;;;;;;4971014;28;20394;-57
2021/09/13 02:58:19;;;;;;;7.17;6.23;;;;;;;;;;4954001;28;20063;-58
2021/09/13 03:00:51;;;;;;;14.15;6.97;;;;;;;;;;4952839;28;20350;-57
2021/09/13 03:03:16;;;;;;;9.07;6.47;;;;;;;;;;4954291;28;20538;-58
2021/09/13 03:05:41;;;;;;;11.90;7.43;;;;;;;;;;4954300;28;20106;-56
2021/09/13 03:08:06;;;;;;;9.30;7.30;;;;;;;;;;4954104;28;20302;-57
2021/09/13 03:10:35;;;;;;;11.20;8.50;;;;;;;;;;4953993;28;20267;-54
2021/09/13 03:13:09;;;;;;;9.10;7.70;;;;;;;;;;4953136;28;20282;-53
2021/09/13 03:15:34;;;;;;;8.52;7.55;;;;;;;;;;4956242;28;20482;-55
2021/09/13 03:17:59;;;;;;;12.95;7.10;;;;;;;;;;4955750;28;20047;-56
2021/09/13 03:20:25;;;;;;;9.20;6.67;;;;;;;;;;4972853;28;20038;-57
2021/09/13 03:22:50;;;;;;;9.90;6.82;;;;;;;;;;4975431;28;20273;-56
2021/09/13 03:25:15;;;;;;;8.50;7.32;;;;;;;;;;4976848;28;20552;-57
2021/09/13 03:27:41;;;;;;;9.75;7.78;;;;;;;;;;4976596;28;20026;-57
2021/09/13 03:30:08;;;;;;;8.43;7.30;;;;;;;;;;4976703;28;20378;-54
2021/09/13 03:32:33;;;;;;;9.52;7.35;;;;;;;;;;4976439;28;20027;-53
2021/09/13 03:35:05;;;;;;;12.10;9.07;;;;;;;;;;4976354;28;20031;-58
2021/09/13 03:37:33;;;;;;;9.45;7.85;;;;;;;;;;4976443;28;20258;-58
2021/09/13 03:40:02;;;;;;;10.40;8.60;;;;;;;;;;4976574;28;20022;-58
2021/09/13 03:42:30;;;;;;;11.77;7.22;;;;;;;;;;4975158;28;20019;-56
2021/09/13 03:44:56;;;;;;;9.15;6.95;;;;;;;;;;4976367;28;20023;-58
2021/09/13 03:47:21;;;;;;;9.48;7.47;;;;;;;;;;4976290;28;20042;-58
2021/09/13 03:49:46;;;;;;;10.83;7.90;;;;;;;;;;4976186;28;20077;-58
2021/09/13 03:52:20;;;;;;;9.90;8.35;;;;;;;;;;4991043;28;20270;-56
2021/09/13 03:54:45;;;;;;;11.52;7.78;;;;;;;;;;4974915;28;20063;-57
2021/09/13 03:57:13;;;;;;;8.83;6.87;;;;;;;;;;4976211;28;20501;-57
2021/09/13 03:59:41;;;;;;;8.35;7.00;;;;;;;;;;4975917;28;20269;-57
2021/09/13 04:02:07;;;;;;;10.15;8.00;;;;;;;;;;4976026;28;20038;-57
2021/09/13 04:04:35;;;;;;;11.07;7.43;;;;;;;;;;4976080;28;20051;-57
2021/09/13 04:12:01;;;;;;;10.18;7.57;;;;;;;;;;4975773;28;20316;-57
2021/09/13 04:14:28;;;;;;;10.13;7.57;;;;;;;;;;4974870;28;20426;-57
2021/09/13 04:16:59;;;;;;;9.55;7.80;;;;;;;;;;4975746;28;20023;-53
2021/09/13 04:19:27;;;;;;;10.48;7.82;;;;;;;;;;4973987;28;20054;-57
2021/09/13 04:21:56;;;;;;;9.52;7.50;;;;;;;;;;4975646;28;20443;-53
2021/09/13 04:24:21;;;;;;;9.20;7.45;;;;;;;;;;4975301;28;20434;-53
2021/09/13 04:26:46;;;;;;;9.48;7.40;;;;;;;;;;4975481;28;20101;-53
2021/09/13 04:29:12;;;;;;;7.72;6.90;;;;;;;;;;4975537;28;20083;-53
2021/09/13 04:31:41;;;;;;;9.70;7.78;;;;;;;;;;4975559;28;20471;-58
2021/09/13 04:34:12;;;;;;;9.13;6.78;;;;;;;;;;4990463;28;20106;-56
2021/09/13 04:36:43;;;;;;;11.18;8.35;;;;;;;;;;4975407;28;20026;-57
2021/09/13 04:39:14;;;;;;;9.90;7.63;;;;;;;;;;4975242;28;20463;-53
2021/09/13 04:41:42;;;;;;;12.80;7.75;;;;;;;;;;4990461;28;20089;-52
2021/09/13 04:44:11;;;;;;;10.38;7.90;;;;;;;;;;4975142;28;20026;-57
2021/09/13 04:46:42;;;;;;;12.40;8.65;;;;;;;;;;4975393;28;20102;-55
2021/09/13 04:49:10;;;;;;;10.43;8.27;;;;;;;;;;4975131;28;20740;-56
2021/09/13 04:51:42;;;;;;;10.93;8.27;;;;;;;;;;4990099;28;20030;-58
2021/09/13 04:54:10;;;;;;;11.32;8.30;;;;;;;;;;4975115;28;20127;-58
2021/09/13 04:56:35;;;;;;;12.70;9.10;;;;;;;;;;4990037;28;20073;-58
2021/09/13 04:59:10;;;;;;;12.63;8.93;;;;;;;;;;4975029;28;20023;-57
2021/09/13 05:01:35;;;;;;;12.13;8.98;;;;;;;;;;4975006;28;20266;-58
2021/09/13 05:04:02;;;;;;;12.25;9.40;;;;;;;;;;4989985;28;20114;-58
2021/09/13 05:06:27;;;;;;;12.05;9.13;;;;;;;;;;4972203;28;20037;-57
2021/09/13 05:08:55;;;;;;;12.73;9.67;;;;;;;;;;4962510;28;20023;-58
2021/09/13 05:11:26;;;;;;;15.02;9.98;;;;;;;;;;4955661;28;20781;-57
2021/09/13 05:13:53;;;;;;;13.43;9.82;;;;;;;;;;4959709;28;20057;-58
2021/09/13 05:16:18;;;;;;;12.57;9.25;;;;;;;;;;4954737;28;20027;-55
2021/09/13 05:18:45;;;;;;;12.17;8.90;;;;;;;;;;4962411;28;20497;-58
2021/09/13 05:21:10;;;;;;;21.33;9.80;;;;;;;;;;4974436;28;20290;-57
2021/09/13 05:23:36;;;;;;;17.33;8.55;;;;;;;;;;4967909;28;20024;-57
2021/09/13 05:26:07;;;;;;;14.35;8.52;;;;;;;;;;4955357;28;20368;-55
2021/09/13 05:28:32;;;;;;;10.65;7.22;;;;;;;;;;4973655;28;20109;-55
2021/09/13 05:31:06;;;;;;;10.07;7.05;;;;;;;;;;4974519;28;20066;-57
2021/09/13 05:33:34;;;;;;;10.98;7.43;;;;;;;;;;4974439;28;20034;-55
2021/09/13 05:36:00;;;;;;;12.23;7.20;;;;;;;;;;4972037;28;20170;-57
2021/09/13 05:38:25;;;;;;;13.27;8.13;;;;;;;;;;4955051;28;20481;-57
2021/09/13 05:40:51;;;;;;;16.48;9.15;;;;;;;;;;4953906;29;20537;-58
2021/09/13 05:43:16;;;;;;;11.50;7.80;;;;;;;;;;4953802;28;20110;-57
2021/09/13 05:45:42;;;;;;;11.88;8.52;;;;;;;;;;4954638;28;20074;-55
2021/09/13 05:48:07;;;;;;;13.73;8.18;;;;;;;;;;4954729;29;20034;-58
2021/09/13 05:50:32;;;;;;;13.13;8.43;;;;;;;;;;4954751;28;20027;-58
2021/09/13 05:52:58;;;;;;;11.88;8.70;;;;;;;;;;4958028;28;20027;-58
2021/09/13 05:55:23;;;;;;;12.35;9.02;;;;;;;;;;4954647;28;20478;-57
2021/09/13 05:57:48;;;;;;;10.85;8.90;;;;;;;;;;4953495;28;20025;-58
2021/09/13 06:00:14;;;;;;;12.23;8.60;;;;;;;;;;4953380;28;20486;-57
2021/09/13 06:02:39;;;;;;;11.55;8.23;;;;;;;;;;4954660;28;20804;-56
2021/09/13 06:05:05;;;;;;;14.20;9.93;;;;;;;;;;4954590;28;20027;-58
2021/09/13 06:07:30;;;;;;;13.57;9.95;;;;;;;;;;4954584;28;20494;-57
2021/09/13 06:09:55;;;;;;;13.95;9.60;;;;;;;;;;4954599;28;20027;-57
2021/09/13 06:12:20;;;;;;;12.02;9.15;;;;;;;;;;4953391;28;20035;-53
2021/09/13 06:14:46;;;;;;;11.07;8.97;;;;;;;;;;4954498;28;20026;-58
2021/09/13 06:17:11;;;;;;;12.27;9.20;;;;;;;;;;4954403;28;20282;-58
2021/09/13 06:19:36;;;;;;;11.90;9.27;;;;;;;;;;4959116;28;20352;-58
2021/09/13 06:22:03;;;;;;;12.40;9.30;;;;;;;;;;4973745;28;20025;-58
2021/09/13 06:24:28;;;;;;;11.10;8.80;;;;;;;;;;4972439;28;20273;-57
2021/09/13 06:26:54;;;;;;;15.38;10.90;;;;;;;;;;4971650;28;20014;-58
2021/09/13 06:29:19;;;;;;;16.73;11.30;;;;;;;;;;4953032;28;20019;-57
2021/09/13 06:31:44;;;;;;;18.00;12.90;;;;;;;;;;4954320;28;20349;-55
2021/09/13 06:34:15;;;;;;;21.67;14.70;;;;;;;;;;4954365;28;20267;-55
2021/09/13 06:36:40;;;;;;;22.50;16.95;;;;;;;;;;4953174;29;20019;-55
2021/09/13 06:39:06;;;;;;;23.65;17.42;;;;;;;;;;4954247;28;20019;-52
2021/09/13 06:41:31;;;;;;;23.80;18.10;;;;;;;;;;4953087;28;20027;-55
2021/09/13 06:43:57;;;;;;;21.50;16.17;;;;;;;;;;4954207;28;20015;-53
2021/09/13 06:46:32;;;;;;;21.20;15.55;;;;;;;;;;4954083;28;20753;-54
2021/09/13 06:49:00;;;;;;;20.40;13.30;;;;;;;;;;4957964;28;20082;-54
2021/09/13 06:51:25;;;;;;;18.50;13.35;;;;;;;;;;4958059;28;20039;-56
2021/09/13 06:53:50;;;;;;;16.10;11.97;;;;;;;;;;4964905;28;20082;-57
2021/09/13 06:56:15;;;;;;;16.43;11.63;;;;;;;;;;4989106;28;20333;-54
2021/09/13 06:58:41;;;;;;;15.38;10.63;;;;;;;;;;4956603;28;20055;-54
2021/09/13 07:01:12;;;;;;;14.80;10.82;;;;;;;;;;4957932;28;20382;-58
2021/09/13 07:03:41;;;;;;;11.40;9.40;;;;;;;;;;4957971;28;20038;-58
2021/09/13 07:06:06;;;;;;;11.35;9.05;;;;;;;;;;4956560;28;20068;-59
2021/09/13 07:08:36;;;;;;;12.30;9.13;;;;;;;;;;4957652;28;20059;-58
2021/09/13 07:11:06;;;;;;;11.50;9.02;;;;;;;;;;4957638;28;20050;-56
2021/09/13 07:13:31;;;;;;;10.30;8.43;;;;;;;;;;4957535;28;20027;-54
2021/09/13 07:16:06;;;;;;;10.27;8.03;;;;;;;;;;4957369;28;20177;-58
2021/09/13 07:18:34;;;;;;;10.73;8.32;;;;;;;;;;4957714;28;20287;-55
2021/09/13 07:20:59;;;;;;;9.18;7.60;;;;;;;;;;4972788;28;20162;-56
2021/09/13 07:23:31;;;;;;;11.00;8.63;;;;;;;;;;4976662;28;20561;-52
2021/09/13 07:25:56;;;;;;;9.45;7.40;;;;;;;;;;4976515;28;20269;-51
2021/09/13 07:28:21;;;;;;;10.53;8.10;;;;;;;;;;4976513;28;20026;-56
2021/09/13 07:30:47;;;;;;;9.57;7.93;;;;;;;;;;4976520;28;20302;-54
2021/09/13 07:33:12;;;;;;;8.15;7.22;;;;;;;;;;4976480;28;20541;-57
2021/09/13 07:35:41;;;;;;;10.75;7.57;;;;;;;;;;4976499;28;20027;-56
2021/09/13 07:38:06;;;;;;;9.07;7.03;;;;;;;;;;4974933;28;20458;-54
2021/09/13 07:40:34;;;;;;;8.30;7.40;;;;;;;;;;4975060;28;20018;-52
2021/09/13 07:42:59;;;;;;;7.80;6.72;;;;;;;;;;4991281;28;20262;-51
2021/09/13 07:45:25;;;;;;;9.33;7.20;;;;;;;;;;4976331;28;20037;-53
2021/09/13 07:47:51;;;;;;;8.23;6.77;;;;;;;;;;4974850;28;20353;-52
2021/09/13 07:50:22;;;;;;;7.82;7.00;;;;;;;;;;4976268;28;20320;-53
2021/09/13 07:52:48;;;;;;;10.20;6.45;;;;;;;;;;4974775;28;20023;-52
2021/09/13 07:55:13;;;;;;;8.13;7.00;;;;;;;;;;4976212;28;20026;-57
2021/09/13 07:57:38;;;;;;;8.43;6.75;;;;;;;;;;4976251;28;20029;-55
2021/09/13 08:00:07;;;;;;;8.57;7.45;;;;;;;;;;4974081;28;20023;-57
2021/09/13 08:02:35;;;;;;;8.90;6.95;;;;;;;;;;4976059;28;20541;-57
2021/09/13 08:05:03;;;;;;;9.95;6.38;;;;;;;;;;4976163;28;20037;-59
2021/09/13 08:07:28;;;;;;;9.55;7.20;;;;;;;;;;4975992;28;20053;-57
2021/09/13 08:09:54;;;;;;;8.15;7.30;;;;;;;;;;4958574;28;20482;-57
2021/09/13 08:12:19;;;;;;;10.67;7.50;;;;;;;;;;4975778;28;20015;-56
2021/09/13 08:14:44;;;;;;;9.40;7.20;;;;;;;;;;4975650;28;20266;-56
2021/09/13 08:17:13;;;;;;;8.55;6.60;;;;;;;;;;4975581;28;20658;-57
2021/09/13 08:19:40;;;;;;;8.88;7.07;;;;;;;;;;4990617;28;20570;-55
2021/09/13 08:22:06;;;;;;;8.15;6.25;;;;;;;;;;4956244;28;20150;-57
2021/09/13 08:24:31;;;;;;;10.18;7.22;;;;;;;;;;4956312;28;20101;-56
2021/09/13 08:26:59;;;;;;;8.30;6.30;;;;;;;;;;4955006;28;20526;-58
2021/09/13 08:29:25;;;;;;;10.38;6.85;;;;;;;;;;4954680;28;20298;-59
2021/09/13 08:31:51;;;;;;;6.60;5.73;;;;;;;;;;4954937;28;20126;-55
2021/09/13 08:34:17;;;;;;;6.63;5.93;;;;;;;;;;4955723;28;20032;-55
2021/09/13 08:36:43;;;;;;;7.35;5.95;;;;;;;;;;4954527;28;20395;-52
2021/09/13 08:39:08;;;;;;;6.88;5.65;;;;;;;;;;4975580;28;20022;-54
2021/09/13 08:41:34;;;;;;;9.27;5.70;;;;;;;;;;4991116;28;20030;-54
2021/09/13 08:44:00;;;;;;;7.85;5.72;;;;;;;;;;4971541;28;20033;-55
2021/09/13 08:46:35;;;;;;;8.45;5.50;;;;;;;;;;4975866;28;20023;-56
2021/09/13 08:49:07;;;;;;;6.55;5.70;;;;;;;;;;4974644;28;20447;-57
2021/09/13 08:51:32;;;;;;;5.72;5.13;;;;;;;;;;4972510;28;20505;-54
2021/09/13 08:54:01;;;;;;;6.43;4.82;;;;;;;;;;4987049;28;20031;-54
2021/09/13 08:56:47;;;;;;;7.80;5.25;;;;;;;;;;4975255;28;20057;-58
2021/09/13 08:59:16;;;;;;;6.22;5.22;;;;;;;;;;4971730;28;20382;-56
2021/09/13 09:01:42;;;;;;;5.97;5.00;;;;;;;;;;4972380;28;20022;-58
2021/09/13 09:04:09;;;;;;;9.10;5.40;;;;;;;;;;4974496;28;20026;-56
2021/09/13 09:06:36;;;;;;;6.85;5.25;;;;;;;;;;4971371;28;20131;-59
2021/09/13 09:09:21;;;;;;;8.60;5.90;;;;;;;;;;4970489;28;20027;-58
2021/09/13 09:12:02;;;;;;;5.55;4.80;;;;;;;;;;4971946;28;20039;-56
2021/09/13 09:14:32;;;;;;;6.95;4.75;;;;;;;;;;4974731;28;20053;-59
2021/09/13 09:16:59;;;;;;;6.45;4.97;;;;;;;;;;4971626;28;20110;-54
2021/09/13 09:19:24;;;;;;;6.47;5.30;;;;;;;;;;4964187;28;20514;-59
2021/09/13 09:21:50;;;;;;;9.57;5.38;;;;;;;;;;4974218;28;20022;-58
2021/09/13 09:24:16;;;;;;;7.38;5.63;;;;;;;;;;4974352;28;20517;-59
2021/09/13 09:26:58;;;;;;;6.30;5.63;;;;;;;;;;4972931;28;20117;-59
2021/09/13 09:29:27;;;;;;;8.20;5.95;;;;;;;;;;4974093;28;20026;-59
2021/09/13 09:31:57;;;;;;;7.57;5.60;;;;;;;;;;4974342;28;20030;-58
2021/09/13 09:34:25;;;;;;;6.07;5.47;;;;;;;;;;4972901;28;20027;-57
2021/09/13 09:37:10;;;;;;;5.75;5.15;;;;;;;;;;4974264;28;20031;-58
2021/09/13 09:39:35;;;;;;;6.20;5.53;;;;;;;;;;4972999;28;20019;-58
2021/09/13 09:42:02;;;;;;;6.40;5.77;;;;;;;;;;4974435;28;20466;-50
2021/09/13 09:44:28;;;;;;;5.50;4.97;;;;;;;;;;4972639;28;20266;-53
2021/09/13 09:46:59;;;;;;;6.28;5.65;;;;;;;;;;4973933;28;20035;-56
2021/09/13 09:49:25;;;;;;;7.63;6.22;;;;;;;;;;4973901;28;20517;-52
2021/09/13 09:51:54;;;;;;;6.13;5.53;;;;;;;;;;4956878;28;20019;-54
2021/09/13 09:54:20;;;;;;;7.15;5.55;;;;;;;;;;4974167;28;20051;-55
2021/09/13 09:56:47;;;;;;;6.97;4.90;;;;;;;;;;4974078;28;20489;-54
2021/09/13 09:59:13;;;;;;;7.50;5.88;;;;;;;;;;4973915;28;20026;-54
2021/09/13 10:01:48;;;;;;;9.27;6.13;;;;;;;;;;4972819;28;20027;-55
2021/09/13 10:04:21;;;;;;;7.38;6.18;;;;;;;;;;4973893;28;20091;-51
2021/09/13 10:06:48;;;;;;;8.00;6.85;;;;;;;;;;4973961;28;20098;-54
2021/09/13 10:09:14;;;;;;;7.68;6.85;;;;;;;;;;4973814;28;20497;-55
2021/09/13 10:11:40;;;;;;;10.10;6.80;;;;;;;;;;4972979;28;20386;-60
2021/09/13 10:14:07;;;;;;;8.30;6.65;;;;;;;;;;4972193;28;20030;-51
2021/09/13 10:16:32;;;;;;;7.43;6.53;;;;;;;;;;4972226;28;20019;-55
2021/09/13 10:18:58;;;;;;;6.20;5.60;;;;;;;;;;4970043;28;20401;-51
2021/09/13 10:21:23;;;;;;;6.72;5.78;;;;;;;;;;4972040;28;20093;-51
2021/09/13 10:23:48;;;;;;;6.30;5.70;;;;;;;;;;4982905;28;20022;-58
2021/09/13 10:26:14;;;;;;;7.78;6.57;;;;;;;;;;4965811;28;20462;-56
2021/09/13 10:29:14;;;;;;;6.00;5.50;;;;;;;;;;4952990;28;20027;-50
2021/09/13 10:31:42;;;;;;;8.70;5.88;;;;;;;;;;4952981;28;20027;-53
2021/09/13 10:34:22;;;;;;;6.97;6.30;;;;;;;;;;4953786;28;20062;-57
2021/09/13 10:37:06;;;;;;;6.35;5.53;;;;;;;;;;4960710;28;20085;-58
2021/09/13 10:39:50;;;;;;;7.07;5.57;;;;;;;;;;4988228;28;20027;-59
2021/09/13 10:42:34;;;;;;;7.13;6.43;;;;;;;;;;4973466;28;20466;-58
2021/09/13 10:45:24;;;;;;;6.30;5.70;;;;;;;;;;4988379;28;20027;-56
2021/09/13 10:48:02;;;;;;;7.43;6.28;;;;;;;;;;4987824;28;20038;-56
2021/09/13 10:50:38;;;;;;;6.95;6.10;;;;;;;;;;4988402;28;20389;-55
2021/09/13 10:53:22;;;;;;;8.13;7.07;;;;;;;;;;4988198;28;20026;-58
2021/09/13 10:55:51;;;;;;;9.02;6.18;;;;;;;;;;4973227;28;20026;-50
2021/09/13 10:58:17;;;;;;;7.20;6.00;;;;;;;;;;4972117;28;20053;-55
2021/09/13 11:00:55;;;;;;;6.63;5.95;;;;;;;;;;4971988;28;20019;-57
2021/09/13 11:06:13;;;;;;;7.30;6.55;;;;;;;;;;4973201;28;20075;-58
2021/09/13 11:08:55;;;;;;;8.27;7.15;;;;;;;;;;4973093;28;20478;-56
2021/09/13 11:11:26;;;;;;;7.67;6.20;;;;;;;;;;4973230;28;20034;-56
2021/09/13 11:14:09;;;;;;;6.40;5.78;;;;;;;;;;4988102;28;20051;-55
2021/09/13 11:16:36;;;;;;;6.88;6.18;;;;;;;;;;4970252;28;20485;-55
2021/09/13 11:19:03;;;;;;;6.85;6.15;;;;;;;;;;4969973;28;20042;-56
2021/09/13 11:21:30;;;;;;;8.60;6.30;;;;;;;;;;4987474;28;20022;-52
2021/09/13 11:24:03;;;;;;;7.65;6.45;;;;;;;;;;4971577;28;20458;-58
2021/09/13 11:26:31;;;;;;;6.60;5.90;;;;;;;;;;4953259;28;20023;-55
2021/09/13 11:29:04;;;;;;;6.88;6.18;;;;;;;;;;4952954;28;20031;-56
2021/09/13 11:31:49;;;;;;;6.55;5.82;;;;;;;;;;4960577;28;20023;-57
2021/09/13 11:34:18;;;;;;;6.45;5.85;;;;;;;;;;4973633;28;20030;-58
2021/09/13 11:36:55;;;;;;;5.72;5.22;;;;;;;;;;4976251;28;20073;-58
2021/09/13 11:39:22;;;;;;;7.22;6.53;;;;;;;;;;4958502;28;20054;-55
2021/09/13 11:41:57;;;;;;;6.93;6.22;;;;;;;;;;4957137;28;20426;-57
2021/09/13 11:44:22;;;;;;;5.82;5.32;;;;;;;;;;4955817;28;20023;-57
2021/09/13 11:46:55;;;;;;;6.70;5.75;;;;;;;;;;4955889;28;20569;-56
2021/09/13 11:49:22;;;;;;;6.07;5.47;;;;;;;;;;4978992;28;20470;-55
2021/09/13 11:52:01;;;;;;;6.30;5.70;;;;;;;;;;4976244;28;20046;-56
2021/09/13 11:54:26;;;;;;;7.55;5.50;;;;;;;;;;4967173;28;20037;-54
2021/09/13 11:56:52;;;;;;;5.85;5.30;;;;;;;;;;4956689;28;20457;-56
2021/09/13 11:59:23;;;;;;;5.70;5.00;;;;;;;;;;4956661;28;20387;-58
2021/09/13 12:02:02;;;;;;;7.18;5.05;;;;;;;;;;4956827;28;20015;-56
2021/09/13 12:04:28;;;;;;;5.38;4.60;;;;;;;;;;4956622;28;20078;-56
2021/09/13 12:07:03;;;;;;;4.88;4.38;;;;;;;;;;4956607;28;20027;-55
2021/09/13 12:09:28;;;;;;;6.97;4.80;;;;;;;;;;4956632;28;20106;-59
2021/09/13 12:11:54;;;;;;;5.15;4.65;;;;;;;;;;4956560;28;20050;-58
2021/09/13 12:14:19;;;;;;;5.20;4.10;;;;;;;;;;4956532;28;20027;-58
2021/09/13 12:17:08;;;;;;;6.07;4.43;;;;;;;;;;4956316;28;20289;-58
2021/09/13 12:19:33;;;;;;;5.88;4.35;;;;;;;;;;4955797;28;20269;-56
2021/09/13 12:22:03;;;;;;;6.00;5.03;;;;;;;;;;4971968;28;20055;-58
2021/09/13 12:24:28;;;;;;;5.88;5.28;;;;;;;;;;4974005;28;20361;-59
2021/09/13 12:26:53;;;;;;;6.03;5.43;;;;;;;;;;4977493;28;20164;-58
2021/09/13 12:29:19;;;;;;;6.68;5.95;;;;;;;;;;4990869;28;20580;-59
2021/09/13 12:31:47;;;;;;;4.23;3.93;;;;;;;;;;4970617;28;20022;-59
2021/09/13 12:34:12;;;;;;;4.85;3.90;;;;;;;;;;4973635;28;20266;-58
2021/09/13 12:36:40;;;;;;;4.30;3.90;;;;;;;;;;4971535;28;20035;-58
2021/09/13 12:39:09;;;;;;;4.35;3.42;;;;;;;;;;4975615;28;20918;-55
2021/09/13 12:41:39;;;;;;;3.75;3.10;;;;;;;;;;4990249;28;20037;-56
2021/09/13 12:44:21;;;;;;;3.58;3.20;;;;;;;;;;4977871;28;20014;-58
2021/09/13 12:46:52;;;;;;;3.92;3.63;;;;;;;;;;4975583;28;20027;-56
2021/09/13 12:49:17;;;;;;;4.13;3.70;;;;;;;;;;4977966;28;20031;-54
2021/09/13 12:51:53;;;;;;;3.97;3.50;;;;;;;;;;4970637;28;20027;-58
2021/09/13 12:54:25;;;;;;;4.15;3.75;;;;;;;;;;4971731;28;20268;-58
2021/09/13 12:56:51;;;;;;;4.25;3.85;;;;;;;;;;4976309;28;20060;-60
2021/09/13 12:59:18;;;;;;;6.15;4.68;;;;;;;;;;4966338;28;20485;-53
2021/09/13 13:01:44;;;;;;;4.97;3.50;;;;;;;;;;4974171;28;20131;-58
2021/09/13 13:04:10;;;;;;;4.63;3.53;;;;;;;;;;4971486;28;20435;-59
2021/09/13 13:06:37;;;;;;;4.05;3.65;;;;;;;;;;4972887;28;20022;-58
2021/09/13 13:09:03;;;;;;;5.93;3.58;;;;;;;;;;4970613;28;20027;-60
2021/09/13 13:11:28;;;;;;;4.30;3.38;;;;;;;;;;4980825;28;20022;-60
2021/09/13 13:13:54;;;;;;;3.67;3.22;;;;;;;;;;4972410;28;20037;-58
2021/09/13 13:16:19;;;;;;;4.33;3.93;;;;;;;;;;4970965;28;20106;-57
2021/09/13 13:18:48;;;;;;;4.85;4.30;;;;;;;;;;4970281;28;20047;-59
2021/09/13 13:21:13;;;;;;;4.93;4.18;;;;;;;;;;4972917;28;20101;-56
2021/09/13 13:23:38;;;;;;;4.27;3.73;;;;;;;;;;4971671;28;20093;-58
2021/09/13 13:26:05;;;;;;;4.93;3.83;;;;;;;;;;4983416;28;20261;-57
2021/09/13 13:28:34;;;;;;;4.63;4.22;;;;;;;;;;4980380;28;20265;-57
2021/09/13 13:30:59;;;;;;;5.50;3.88;;;;;;;;;;4986468;28;20023;-58
2021/09/13 13:33:25;;;;;;;3.80;3.50;;;;;;;;;;4965655;28;20034;-55
2021/09/13 13:35:50;;;;;;;6.23;3.80;;;;;;;;;;4966118;28;20653;-57
2021/09/13 13:38:15;;;;;;;4.10;3.70;;;;;;;;;;4974421;28;20385;-55
2021/09/13 13:40:41;;;;;;;4.72;3.65;;;;;;;;;;4975172;28;20266;-57
2021/09/13 13:43:06;;;;;;;3.92;3.53;;;;;;;;;;4977588;28;20375;-60
2021/09/13 13:45:35;;;;;;;3.40;3.05;;;;;;;;;;4973170;28;20102;-60
2021/09/13 13:48:00;;;;;;;3.38;3.00;;;;;;;;;;4965684;28;20026;-60
2021/09/13 13:50:30;;;;;;;3.78;3.25;;;;;;;;;;4978701;28;20082;-59
2021/09/13 13:52:55;;;;;;;4.28;3.03;;;;;;;;;;4980206;28;20116;-60
2021/09/13 13:55:20;;;;;;;3.10;2.80;;;;;;;;;;4989997;28;20105;-57
2021/09/13 13:57:46;;;;;;;3.20;2.90;;;;;;;;;;4984337;28;20265;-58
2021/09/13 14:00:12;;;;;;;4.43;3.03;;;;;;;;;;4972605;28;20027;-57
2021/09/13 14:02:40;;;;;;;3.30;2.97;;;;;;;;;;4973757;28;20088;-58
2021/09/13 14:05:06;;;;;;;3.92;3.00;;;;;;;;;;4985622;28;20045;-60
2021/09/13 14:07:31;;;;;;;3.25;2.92;;;;;;;;;;4970219;28;20023;-60
2021/09/13 14:10:00;;;;;;;4.00;3.00;;;;;;;;;;4972297;28;20398;-61
2021/09/13 14:12:25;;;;;;;5.78;3.30;;;;;;;;;;4958522;28;20034;-61
2021/09/13 14:14:51;;;;;;;5.15;3.05;;;;;;;;;;4975766;28;20030;-61
2021/09/13 14:17:17;;;;;;;5.03;3.10;;;;;;;;;;4987394;28;20047;-60
2021/09/13 14:19:43;;;;;;;3.50;3.13;;;;;;;;;;4969089;28;20469;-61
2021/09/13 14:22:08;;;;;;;4.85;3.20;;;;;;;;;;4965927;28;20437;-61
2021/09/13 14:24:33;;;;;;;3.33;2.80;;;;;;;;;;4972009;28;20044;-61
2021/09/13 14:27:05;;;;;;;3.55;3.15;;;;;;;;;;4973465;28;20023;-59
2021/09/13 14:29:30;;;;;;;3.35;3.00;;;;;;;;;;4971716;28;20049;-60
2021/09/13 14:31:56;;;;;;;4.10;3.70;;;;;;;;;;4973878;28;20117;-57
2021/09/13 14:34:21;;;;;;;4.65;3.92;;;;;;;;;;4971657;28;20107;-60
2021/09/13 14:36:46;;;;;;;4.10;3.67;;;;;;;;;;4972971;28;20074;-60
2021/09/13 14:39:12;;;;;;;4.45;4.05;;;;;;;;;;4970491;28;20019;-60
2021/09/13 14:41:37;;;;;;;4.20;3.80;;;;;;;;;;4986884;28;20023;-59
2021/09/13 14:44:02;;;;;;;4.00;3.70;;;;;;;;;;4970576;28;20034;-60
2021/09/13 14:46:28;;;;;;;3.78;3.33;;;;;;;;;;4971457;28;20023;-59
2021/09/13 14:48:53;;;;;;;5.47;3.70;;;;;;;;;;4975486;28;20118;-60
2021/09/13 14:51:19;;;;;;;4.38;3.80;;;;;;;;;;4969630;28;20266;-60